createdAt,value
2023-01-28T00:00:37.420Z,2.12
2023-01-28T00:01:37.424Z,2.10
2023-01-28T00:02:37.489Z,2.10
2023-01-28T00:03:37.425Z,2.14
2023-01-28T00:04:37.376Z,2.14
2023-01-28T00:05:37.374Z,2.16
2023-01-28T00:06:37.379Z,2.16
2023-01-28T00:07:37.338Z,2.16
2023-01-28T00:08:37.337Z,2.12
2023-01-28T00:09:37.325Z,2.03
2023-01-28T00:10:37.305Z,2.03
2023-01-28T00:11:37.287Z,2.03
2023-01-28T00:12:37.295Z,2.07
2023-01-28T00:13:37.279Z,2.07
2023-01-28T00:14:37.262Z,2.06
2023-01-28T00:15:37.245Z,2.07
2023-01-28T00:16:37.247Z,2.07
2023-01-28T00:17:37.228Z,2.03
2023-01-28T00:18:37.288Z,2.05
2023-01-28T00:19:37.210Z,2.06
2023-01-28T00:20:37.209Z,2.03
2023-01-28T00:21:37.181Z,2.05
2023-01-28T00:22:37.205Z,2.05
2023-01-28T00:23:37.170Z,2.03
2023-01-28T00:24:37.193Z,2.02
2023-01-28T00:25:37.136Z,2.03
2023-01-28T00:26:37.124Z,2.05
2023-01-28T00:27:37.130Z,2.09
2023-01-28T00:28:37.106Z,2.10
2023-01-28T00:29:37.177Z,2.12
2023-01-28T00:30:37.162Z,2.09
2023-01-28T00:31:37.112Z,2.05
2023-01-28T00:32:37.068Z,2.03
2023-01-28T00:33:37.062Z,2.07
2023-01-28T00:34:37.065Z,2.03
2023-01-28T00:35:37.053Z,2.05
2023-01-28T00:36:37.023Z,2.07
2023-01-28T00:37:37.004Z,2.07
2023-01-28T00:38:36.994Z,2.10
2023-01-28T00:39:36.996Z,2.09
2023-01-28T00:40:36.987Z,2.10
2023-01-28T00:41:36.984Z,2.05
2023-01-28T00:42:36.953Z,2.02
2023-01-28T00:43:36.947Z,2.02
2023-01-28T00:44:36.943Z,2.06
2023-01-28T00:45:36.961Z,2.02
2023-01-28T00:46:36.922Z,2.02
2023-01-28T00:47:36.886Z,1.99
2023-01-28T00:48:36.882Z,1.99
2023-01-28T00:49:36.899Z,1.98
2023-01-28T00:50:36.875Z,2.00
2023-01-28T00:51:36.839Z,2.03
2023-01-28T00:52:36.835Z,2.03
2023-01-28T00:53:36.835Z,2.02
2023-01-28T00:54:36.833Z,2.03
2023-01-28T00:55:36.800Z,1.99
2023-01-28T00:56:36.789Z,2.00
2023-01-28T00:57:36.796Z,2.02
2023-01-28T00:58:36.771Z,2.03
2023-01-28T00:59:36.785Z,2.06
2023-01-28T01:00:36.766Z,2.05
2023-01-28T01:01:36.774Z,2.00
2023-01-28T01:02:36.753Z,1.95
2023-01-28T01:03:36.719Z,1.95
2023-01-28T01:04:36.716Z,1.98
2023-01-28T01:05:36.697Z,1.95
2023-01-28T01:06:36.720Z,1.99
2023-01-28T01:07:36.673Z,2.00
2023-01-28T01:08:36.662Z,1.98
2023-01-28T01:09:36.650Z,1.98
2023-01-28T01:10:36.651Z,1.98
2023-01-28T01:11:36.656Z,1.99
2023-01-28T01:12:36.610Z,1.98
2023-01-28T01:13:36.602Z,1.95
2023-01-28T01:14:36.583Z,1.95
2023-01-28T01:15:36.619Z,1.95
2023-01-28T01:16:36.572Z,1.91
2023-01-28T01:17:36.568Z,1.91
2023-01-28T01:18:36.545Z,1.90
2023-01-28T01:19:36.548Z,1.90
2023-01-28T01:20:36.534Z,1.91
2023-01-28T01:21:36.505Z,1.95
2023-01-28T01:22:36.500Z,1.98
2023-01-28T01:23:36.496Z,2.02
2023-01-28T01:24:36.478Z,2.05
2023-01-28T01:25:36.485Z,2.05
2023-01-28T01:26:36.455Z,2.06
2023-01-28T01:27:36.435Z,2.07
2023-01-28T01:28:36.452Z,2.05
2023-01-28T01:29:36.432Z,2.05
2023-01-28T01:30:36.423Z,2.03
2023-01-28T01:31:36.466Z,2.03
2023-01-28T01:32:36.388Z,2.05
2023-01-28T01:33:36.371Z,2.06
2023-01-28T01:34:36.386Z,2.12
2023-01-28T01:35:36.353Z,2.12
2023-01-28T01:36:36.358Z,2.16
2023-01-28T01:37:36.387Z,2.18
2023-01-28T01:38:36.315Z,2.23
2023-01-28T01:39:36.311Z,2.21
2023-01-28T01:40:36.307Z,2.18
2023-01-28T01:41:36.284Z,2.14
2023-01-28T01:42:36.293Z,2.14
2023-01-28T01:43:36.270Z,2.17
2023-01-28T01:44:36.255Z,2.17
2023-01-28T01:45:36.263Z,2.16
2023-01-28T01:46:36.227Z,2.20
2023-01-28T01:47:36.230Z,2.24
2023-01-28T01:48:36.200Z,2.17
2023-01-28T01:49:36.194Z,2.09
2023-01-28T01:50:36.199Z,2.05
2023-01-28T01:51:36.187Z,2.00
2023-01-28T01:52:36.159Z,1.93
2023-01-28T01:53:36.144Z,1.93
2023-01-28T01:54:36.142Z,1.98
2023-01-28T01:55:37.886Z,1.99
2023-01-28T01:56:36.127Z,1.95
2023-01-28T01:57:36.161Z,1.95
2023-01-28T01:58:36.089Z,1.84
2023-01-28T01:59:36.079Z,1.81
2023-01-28T02:00:36.086Z,1.79
2023-01-28T02:01:36.068Z,1.77
2023-01-28T02:02:36.061Z,1.76
2023-01-28T02:03:36.110Z,1.76
2023-01-28T02:04:36.034Z,1.76
2023-01-28T02:05:36.009Z,1.70
2023-01-28T02:06:36.003Z,1.66
2023-01-28T02:07:35.998Z,1.65
2023-01-28T02:08:36.004Z,1.65
2023-01-28T02:09:36.013Z,1.65
2023-01-28T02:10:35.955Z,1.65
2023-01-28T02:11:35.948Z,1.66
2023-01-28T02:12:35.975Z,1.65
2023-01-28T02:13:35.939Z,1.68
2023-01-28T02:14:35.910Z,1.62
2023-01-28T02:15:35.900Z,1.60
2023-01-28T02:16:35.938Z,1.62
2023-01-28T02:17:35.878Z,1.62
2023-01-28T02:18:35.889Z,1.59
2023-01-28T02:19:35.857Z,1.58
2023-01-28T02:20:35.871Z,1.51
2023-01-28T02:21:35.840Z,1.47
2023-01-28T02:22:35.831Z,1.47
2023-01-28T02:23:35.817Z,1.48
2023-01-28T02:24:35.823Z,1.47
2023-01-28T02:25:35.811Z,1.48
2023-01-28T02:26:35.774Z,1.47
2023-01-28T02:27:35.765Z,1.45
2023-01-28T02:28:35.773Z,1.48
2023-01-28T02:29:35.737Z,1.45
2023-01-28T02:30:35.844Z,1.45
2023-01-28T02:31:35.869Z,1.45
2023-01-28T02:32:35.716Z,1.47
2023-01-28T02:33:35.698Z,1.47
2023-01-28T02:34:35.687Z,1.47
2023-01-28T02:35:35.716Z,1.47
2023-01-28T02:36:35.681Z,1.50
2023-01-28T02:37:35.651Z,1.50
2023-01-28T02:38:35.643Z,1.50
2023-01-28T02:39:35.634Z,1.45
2023-01-28T02:40:35.631Z,1.48
2023-01-28T02:41:35.625Z,1.48
2023-01-28T02:42:35.623Z,1.44
2023-01-28T02:43:35.593Z,1.44
2023-01-28T02:44:35.568Z,1.44
2023-01-28T02:45:35.573Z,1.42
2023-01-28T02:46:35.601Z,1.44
2023-01-28T02:47:35.557Z,1.41
2023-01-28T02:48:35.522Z,1.45
2023-01-28T02:49:35.531Z,1.47
2023-01-28T02:50:35.508Z,1.48
2023-01-28T02:51:35.507Z,1.48
2023-01-28T02:52:35.506Z,1.47
2023-01-28T02:53:35.506Z,1.45
2023-01-28T02:54:35.458Z,1.44
2023-01-28T02:55:35.465Z,1.40
2023-01-28T02:56:35.448Z,1.40
2023-01-28T02:57:35.420Z,1.42
2023-01-28T02:58:35.417Z,1.42
2023-01-28T02:59:35.455Z,1.42
2023-01-28T03:00:35.392Z,1.42
2023-01-28T03:01:35.409Z,1.41
2023-01-28T03:02:35.388Z,1.36
2023-01-28T03:03:35.361Z,1.40
2023-01-28T03:04:35.363Z,1.37
2023-01-28T03:05:35.373Z,1.37
2023-01-28T03:06:35.325Z,1.37
2023-01-28T03:07:35.322Z,1.40
2023-01-28T03:08:35.299Z,1.40
2023-01-28T03:09:35.288Z,1.40
2023-01-28T03:10:35.283Z,1.41
2023-01-28T03:11:35.295Z,1.40
2023-01-28T03:12:35.271Z,1.36
2023-01-28T03:13:35.252Z,1.34
2023-01-28T03:14:35.236Z,1.33
2023-01-28T03:15:35.292Z,1.34
2023-01-28T03:16:35.233Z,1.33
2023-01-28T03:17:35.221Z,1.33
2023-01-28T03:18:35.203Z,1.34
2023-01-28T03:19:35.195Z,1.36
2023-01-28T03:20:35.166Z,1.37
2023-01-28T03:21:35.270Z,1.37
2023-01-28T03:22:35.160Z,1.36
2023-01-28T03:23:35.132Z,1.37
2023-01-28T03:24:35.131Z,1.40
2023-01-28T03:25:35.127Z,1.40
2023-01-28T03:26:35.112Z,1.41
2023-01-28T03:27:35.098Z,1.44
2023-01-28T03:28:35.123Z,1.44
2023-01-28T03:29:35.068Z,1.45
2023-01-28T03:30:35.107Z,1.45
2023-01-28T03:31:35.080Z,1.42
2023-01-28T03:32:35.034Z,1.42
2023-01-28T03:33:35.029Z,1.42
2023-01-28T03:34:35.018Z,1.42
2023-01-28T03:35:35.026Z,1.44
2023-01-28T03:36:35.001Z,1.41
2023-01-28T03:37:35.003Z,1.42
2023-01-28T03:38:34.972Z,1.37
2023-01-28T03:39:34.953Z,1.37
2023-01-28T03:40:34.953Z,1.36
2023-01-28T03:41:34.958Z,1.32
2023-01-28T03:42:34.926Z,1.32
2023-01-28T03:43:34.922Z,1.34
2023-01-28T03:44:34.904Z,1.33
2023-01-28T03:45:34.907Z,1.33
2023-01-28T03:46:34.937Z,1.34
2023-01-28T03:47:34.925Z,1.37
2023-01-28T03:48:34.859Z,1.37
2023-01-28T03:49:34.849Z,1.40
2023-01-28T03:50:34.847Z,1.40
2023-01-28T03:51:34.855Z,1.40
2023-01-28T03:52:34.829Z,1.40
2023-01-28T03:53:34.816Z,1.40
2023-01-28T03:54:34.786Z,1.40
2023-01-28T03:55:34.784Z,1.34
2023-01-28T03:56:34.773Z,1.34
2023-01-28T03:57:34.775Z,1.33
2023-01-28T03:58:34.756Z,1.29
2023-01-28T03:59:34.761Z,1.26
2023-01-28T04:00:34.726Z,1.29
2023-01-28T04:01:34.780Z,1.29
2023-01-28T04:02:34.740Z,1.29
2023-01-28T04:03:34.716Z,1.32
2023-01-28T04:04:34.686Z,1.32
2023-01-28T04:05:34.696Z,1.33
2023-01-28T04:06:34.675Z,1.32
2023-01-28T04:07:34.659Z,1.29
2023-01-28T04:08:34.645Z,1.29
2023-01-28T04:09:34.664Z,1.24
2023-01-28T04:10:34.635Z,1.23
2023-01-28T04:11:34.610Z,1.23
2023-01-28T04:12:34.590Z,1.23
2023-01-28T04:13:34.715Z,1.23
2023-01-28T04:14:34.579Z,1.24
2023-01-28T04:15:34.593Z,1.23
2023-01-28T04:16:34.564Z,1.24
2023-01-28T04:17:34.529Z,1.24
2023-01-28T04:18:34.547Z,1.22
2023-01-28T04:19:34.530Z,1.22
2023-01-28T04:20:34.508Z,1.24
2023-01-28T04:21:34.487Z,1.23
2023-01-28T04:22:34.479Z,1.22
2023-01-28T04:23:34.470Z,1.20
2023-01-28T04:24:34.476Z,1.20
2023-01-28T04:25:34.457Z,1.20
2023-01-28T04:26:34.444Z,1.18
2023-01-28T04:27:34.426Z,1.18
2023-01-28T04:28:34.426Z,1.22
2023-01-28T04:29:34.422Z,1.18
2023-01-28T04:30:34.461Z,1.18
2023-01-28T04:31:34.469Z,1.20
2023-01-28T04:32:34.365Z,1.18
2023-01-28T04:33:34.355Z,1.16
2023-01-28T04:34:34.358Z,1.18
2023-01-28T04:35:34.337Z,1.18
2023-01-28T04:36:34.331Z,1.16
2023-01-28T04:37:34.315Z,1.15
2023-01-28T04:38:34.301Z,1.12
2023-01-28T04:39:34.288Z,1.09
2023-01-28T04:40:34.291Z,1.09
2023-01-28T04:41:34.291Z,1.09
2023-01-28T04:42:34.258Z,1.11
2023-01-28T04:43:34.251Z,1.09
2023-01-28T04:44:34.255Z,1.11
2023-01-28T04:45:34.224Z,1.06
2023-01-28T04:46:34.276Z,1.06
2023-01-28T04:47:34.223Z,1.04
2023-01-28T04:48:34.189Z,1.04
2023-01-28T04:49:34.206Z,1.02
2023-01-28T04:50:34.275Z,1.02
2023-01-28T04:51:34.160Z,1.05
2023-01-28T04:52:34.158Z,1.08
2023-01-28T04:53:34.154Z,1.11
2023-01-28T04:54:34.123Z,1.11
2023-01-28T04:55:34.113Z,1.06
2023-01-28T04:56:34.122Z,1.04
2023-01-28T04:57:34.094Z,1.06
2023-01-28T04:58:34.073Z,1.08
2023-01-28T04:59:34.085Z,1.08
2023-01-28T05:00:34.194Z,1.11
2023-01-28T05:01:34.042Z,1.09
2023-01-28T05:02:34.026Z,1.05
2023-01-28T05:03:36.265Z,1.04
2023-01-28T05:04:34.032Z,1.04
2023-01-28T05:05:34.021Z,1.02
2023-01-28T05:06:34.023Z,1.02
2023-01-28T05:07:33.994Z,1.00
2023-01-28T05:08:33.971Z,1.06
2023-01-28T05:09:33.962Z,1.09
2023-01-28T05:10:33.957Z,1.11
2023-01-28T05:11:33.949Z,1.11
2023-01-28T05:12:33.924Z,1.02
2023-01-28T05:13:33.935Z,0.97
2023-01-28T05:14:33.908Z,0.96
2023-01-28T05:15:33.883Z,0.94
2023-01-28T05:16:33.877Z,0.96
2023-01-28T05:17:33.868Z,0.96
2023-01-28T05:18:33.874Z,0.97
2023-01-28T05:19:34.777Z,0.97
2023-01-28T05:20:33.839Z,0.98
2023-01-28T05:21:33.817Z,1.00
2023-01-28T05:22:33.817Z,0.98
2023-01-28T05:23:33.795Z,0.97
2023-01-28T05:24:33.830Z,1.00
2023-01-28T05:25:33.783Z,0.97
2023-01-28T05:26:33.780Z,0.97
2023-01-28T05:27:33.752Z,0.97
2023-01-28T05:28:33.744Z,0.98
2023-01-28T05:29:33.740Z,1.02
2023-01-28T05:30:33.800Z,1.04
2023-01-28T05:31:33.708Z,1.05
2023-01-28T05:32:33.721Z,1.05
2023-01-28T05:33:33.694Z,1.04
2023-01-28T05:34:33.683Z,1.02
2023-01-28T05:35:33.709Z,1.04
2023-01-28T05:36:33.676Z,1.05
2023-01-28T05:37:33.644Z,1.08
2023-01-28T05:38:33.638Z,1.05
2023-01-28T05:39:33.628Z,1.08
2023-01-28T05:40:33.615Z,1.04
2023-01-28T05:41:33.614Z,1.06
2023-01-28T05:42:34.342Z,1.08
2023-01-28T05:43:33.577Z,1.06
2023-01-28T05:44:33.560Z,1.08
2023-01-28T05:45:33.696Z,1.09
2023-01-28T05:46:33.555Z,1.11
2023-01-28T05:47:33.540Z,1.12
2023-01-28T05:48:33.531Z,1.09
2023-01-28T05:49:33.523Z,1.09
2023-01-28T05:50:33.495Z,1.11
2023-01-28T05:51:33.503Z,1.06
2023-01-28T05:52:33.473Z,1.00
2023-01-28T05:53:33.559Z,1.00
2023-01-28T05:54:33.505Z,0.98
2023-01-28T05:55:33.444Z,0.96
2023-01-28T05:56:33.448Z,0.97
2023-01-28T05:57:33.437Z,0.94
2023-01-28T05:58:33.405Z,0.93
2023-01-28T05:59:33.408Z,0.88
2023-01-28T06:00:33.399Z,0.90
2023-01-28T06:01:33.371Z,0.94
2023-01-28T06:02:33.447Z,0.96
2023-01-28T06:03:33.375Z,0.94
2023-01-28T06:04:33.342Z,0.96
2023-01-28T06:05:33.408Z,0.96
2023-01-28T06:06:33.342Z,0.91
2023-01-28T06:07:33.319Z,0.87
2023-01-28T06:08:33.303Z,0.84
2023-01-28T06:09:33.311Z,0.84
2023-01-28T06:10:33.301Z,0.86
2023-01-28T06:11:33.271Z,0.88
2023-01-28T06:12:33.270Z,0.88
2023-01-28T06:13:33.260Z,0.88
2023-01-28T06:14:33.419Z,0.90
2023-01-28T06:15:33.262Z,0.87
2023-01-28T06:16:33.204Z,0.87
2023-01-28T06:17:33.207Z,0.87
2023-01-28T06:18:33.192Z,0.90
2023-01-28T06:19:33.183Z,0.88
2023-01-28T06:20:33.171Z,0.90
2023-01-28T06:21:33.187Z,0.91
2023-01-28T06:22:33.140Z,0.91
2023-01-28T06:23:33.143Z,0.93
2023-01-28T06:24:33.139Z,0.94
2023-01-28T06:25:33.118Z,0.93
2023-01-28T06:26:33.092Z,0.87
2023-01-28T06:27:33.088Z,0.84
2023-01-28T06:28:33.077Z,0.83
2023-01-28T06:29:33.069Z,0.86
2023-01-28T06:30:33.110Z,0.88
2023-01-28T06:31:33.060Z,0.88
2023-01-28T06:32:33.037Z,0.90
2023-01-28T06:33:33.012Z,0.94
2023-01-28T06:34:33.043Z,0.96
2023-01-28T06:35:32.994Z,0.94
2023-01-28T06:36:32.991Z,0.93
2023-01-28T06:37:33.019Z,0.88
2023-01-28T06:38:32.970Z,0.87
2023-01-28T06:39:32.952Z,0.87
2023-01-28T06:40:32.952Z,0.88
2023-01-28T06:41:32.934Z,0.87
2023-01-28T06:42:32.922Z,0.87
2023-01-28T06:43:32.926Z,0.84
2023-01-28T06:44:32.907Z,0.79
2023-01-28T06:45:32.891Z,0.75
2023-01-28T06:46:32.929Z,0.75
2023-01-28T06:47:32.877Z,0.78
2023-01-28T06:48:32.854Z,0.80
2023-01-28T06:49:32.864Z,0.80
2023-01-28T06:50:32.822Z,0.86
2023-01-28T06:51:32.819Z,0.87
2023-01-28T06:52:32.831Z,0.90
2023-01-28T06:53:32.815Z,0.96
2023-01-28T06:54:32.783Z,0.98
2023-01-28T06:55:32.798Z,1.00
2023-01-28T06:56:32.763Z,1.00
2023-01-28T06:57:32.755Z,1.00
2023-01-28T06:58:32.763Z,0.97
2023-01-28T06:59:32.739Z,0.93
2023-01-28T07:00:32.721Z,0.93
2023-01-28T07:01:32.812Z,0.94
2023-01-28T07:02:32.789Z,0.94
2023-01-28T07:03:32.711Z,0.96
2023-01-28T07:04:32.699Z,0.94
2023-01-28T07:05:32.659Z,0.90
2023-01-28T07:06:32.649Z,0.86
2023-01-28T07:07:32.651Z,0.79
2023-01-28T07:08:32.625Z,0.76
2023-01-28T07:09:32.617Z,0.70
2023-01-28T07:10:32.623Z,0.69
2023-01-28T07:11:32.592Z,0.69
2023-01-28T07:12:32.591Z,0.72
2023-01-28T07:13:32.579Z,0.73
2023-01-28T07:14:32.577Z,0.76
2023-01-28T07:15:32.549Z,0.75
2023-01-28T07:16:32.576Z,0.72
2023-01-28T07:17:32.584Z,0.75
2023-01-28T07:18:32.525Z,0.79
2023-01-28T07:19:32.519Z,0.83
2023-01-28T07:20:32.522Z,0.84
2023-01-28T07:21:32.479Z,0.83
2023-01-28T07:22:32.474Z,0.83
2023-01-28T07:23:32.475Z,0.79
2023-01-28T07:24:32.452Z,0.79
2023-01-28T07:25:32.431Z,0.78
2023-01-28T07:26:32.453Z,0.84
2023-01-28T07:27:32.417Z,0.86
2023-01-28T07:28:32.408Z,0.88
2023-01-28T07:29:32.459Z,0.87
2023-01-28T07:30:32.378Z,0.86
2023-01-28T07:31:32.468Z,0.83
2023-01-28T07:32:32.392Z,0.83
2023-01-28T07:33:32.350Z,0.79
2023-01-28T07:34:32.344Z,0.79
2023-01-28T07:35:32.360Z,0.83
2023-01-28T07:36:32.319Z,0.78
2023-01-28T07:37:32.308Z,0.69
2023-01-28T07:38:32.328Z,0.68
2023-01-28T07:39:32.283Z,0.70
2023-01-28T07:40:32.265Z,0.66
2023-01-28T07:41:32.274Z,0.61
2023-01-28T07:42:32.260Z,0.61
2023-01-28T07:43:32.243Z,0.62
2023-01-28T07:44:32.237Z,0.62
2023-01-28T07:45:32.219Z,0.61
2023-01-28T07:46:32.209Z,0.61
2023-01-28T07:47:32.250Z,0.61
2023-01-28T07:48:32.187Z,0.65
2023-01-28T07:49:32.170Z,0.68
2023-01-28T07:50:32.201Z,0.68
2023-01-28T07:51:32.161Z,0.66
2023-01-28T07:52:32.131Z,0.68
2023-01-28T07:53:32.144Z,0.75
2023-01-28T07:54:32.117Z,0.75
2023-01-28T07:55:32.096Z,0.73
2023-01-28T07:56:32.118Z,0.78
2023-01-28T07:57:32.086Z,0.79
2023-01-28T07:58:32.076Z,0.79
2023-01-28T07:59:32.076Z,0.79
2023-01-28T08:00:32.054Z,0.75
2023-01-28T08:01:32.150Z,0.72
2023-01-28T08:02:32.047Z,0.70
2023-01-28T08:03:32.012Z,0.70
2023-01-28T08:04:32.092Z,0.70
2023-01-28T08:05:32.133Z,0.66
2023-01-28T08:06:31.997Z,0.66
2023-01-28T08:07:31.972Z,0.70
2023-01-28T08:08:31.971Z,0.69
2023-01-28T08:09:31.954Z,0.68
2023-01-28T08:10:31.942Z,0.69
2023-01-28T08:11:31.944Z,0.70
2023-01-28T08:12:31.929Z,0.70
2023-01-28T08:13:31.901Z,0.76
2023-01-28T08:14:31.898Z,0.80
2023-01-28T08:15:34.133Z,0.84
2023-01-28T08:16:31.885Z,0.84
2023-01-28T08:17:31.878Z,0.87
2023-01-28T08:18:31.846Z,0.87
2023-01-28T08:19:31.835Z,0.90
2023-01-28T08:20:31.838Z,0.88
2023-01-28T08:21:31.820Z,0.93
2023-01-28T08:22:31.806Z,0.94
2023-01-28T08:23:31.800Z,1.00
2023-01-28T08:24:31.856Z,1.06
2023-01-28T08:25:31.781Z,1.09
2023-01-28T08:26:31.769Z,1.12
2023-01-28T08:27:31.781Z,1.18
2023-01-28T08:28:31.741Z,1.18
2023-01-28T08:29:31.752Z,1.20
2023-01-28T08:30:31.747Z,1.20
2023-01-28T08:31:31.786Z,1.14
2023-01-28T08:32:31.709Z,1.15
2023-01-28T08:33:31.697Z,1.11
2023-01-28T08:34:31.668Z,1.08
2023-01-28T08:35:31.667Z,1.08
2023-01-28T08:36:31.645Z,1.11
2023-01-28T08:37:31.632Z,1.15
2023-01-28T08:38:31.652Z,1.18
2023-01-28T08:39:31.620Z,1.16
2023-01-28T08:40:31.622Z,1.22
2023-01-28T08:41:31.592Z,1.24
2023-01-28T08:42:31.591Z,1.32
2023-01-28T08:43:31.591Z,1.27
2023-01-28T08:44:31.585Z,1.18
2023-01-28T08:45:31.559Z,1.15
2023-01-28T08:46:31.559Z,1.16
2023-01-28T08:47:31.528Z,1.15
2023-01-28T08:48:31.515Z,1.14
2023-01-28T08:49:31.502Z,1.12
2023-01-28T08:50:31.520Z,1.00
2023-01-28T08:51:31.482Z,0.98
2023-01-28T08:52:31.474Z,1.02
2023-01-28T08:53:31.458Z,0.98
2023-01-28T08:54:31.461Z,1.04
2023-01-28T08:55:31.446Z,1.02
2023-01-28T08:56:31.444Z,1.02
2023-01-28T08:57:31.413Z,1.02
2023-01-28T08:58:31.411Z,0.98
2023-01-28T08:59:31.388Z,0.93
2023-01-28T09:00:31.396Z,0.88
2023-01-28T09:01:31.414Z,0.88
2023-01-28T09:02:32.470Z,0.86
2023-01-28T09:03:31.384Z,0.83
2023-01-28T09:04:31.338Z,0.88
2023-01-28T09:05:31.328Z,0.94
2023-01-28T09:06:31.337Z,1.02
2023-01-28T09:07:31.315Z,1.04
2023-01-28T09:08:31.297Z,1.05
2023-01-28T09:09:31.291Z,1.04
2023-01-28T09:10:31.288Z,1.04
2023-01-28T09:11:31.251Z,1.04
2023-01-28T09:12:31.263Z,0.98
2023-01-28T09:13:31.243Z,0.98
2023-01-28T09:14:31.230Z,1.02
2023-01-28T09:15:31.222Z,1.02
2023-01-28T09:16:31.252Z,0.91
2023-01-28T09:17:31.192Z,0.78
2023-01-28T09:18:31.207Z,0.76
2023-01-28T09:19:31.176Z,0.78
2023-01-28T09:20:31.157Z,0.83
2023-01-28T09:21:31.184Z,0.83
2023-01-28T09:22:31.142Z,0.87
2023-01-28T09:23:31.124Z,0.90
2023-01-28T09:24:31.176Z,0.91
2023-01-28T09:25:31.127Z,0.90
2023-01-28T09:26:31.096Z,0.93
2023-01-28T09:27:31.104Z,0.97
2023-01-28T09:28:31.071Z,0.94
2023-01-28T09:29:31.051Z,0.94
2023-01-28T09:30:31.142Z,0.98
2023-01-28T09:31:31.067Z,1.00
2023-01-28T09:32:31.026Z,0.97
2023-01-28T09:33:31.032Z,0.93
2023-01-28T09:34:31.003Z,0.91
2023-01-28T09:35:30.993Z,0.94
2023-01-28T09:36:30.977Z,0.96
2023-01-28T09:37:30.966Z,0.96
2023-01-28T09:38:30.970Z,0.91
2023-01-28T09:39:30.969Z,0.87
2023-01-28T09:40:30.928Z,0.87
2023-01-28T09:41:30.934Z,0.93
2023-01-28T09:42:30.916Z,0.93
2023-01-28T09:43:30.918Z,0.97
2023-01-28T09:44:30.893Z,0.90
2023-01-28T09:45:30.888Z,0.88
2023-01-28T09:46:30.924Z,0.94
2023-01-28T09:47:30.870Z,1.06
2023-01-28T09:48:30.850Z,1.14
2023-01-28T09:49:30.837Z,1.22
2023-01-28T09:50:30.831Z,1.20
2023-01-28T09:51:30.820Z,1.22
2023-01-28T09:52:30.862Z,1.16
2023-01-28T09:53:30.814Z,1.23
2023-01-28T09:54:30.779Z,1.22
2023-01-28T09:55:30.776Z,1.18
2023-01-28T09:56:30.779Z,1.08
2023-01-28T09:57:30.744Z,1.06
2023-01-28T09:58:30.744Z,1.05
2023-01-28T09:59:30.727Z,1.04
2023-01-28T10:00:30.753Z,1.05
2023-01-28T10:01:30.713Z,1.00
2023-01-28T10:02:30.695Z,0.96
2023-01-28T10:03:30.732Z,0.93
2023-01-28T10:04:30.670Z,0.94
2023-01-28T10:05:30.679Z,0.98
2023-01-28T10:06:30.639Z,0.98
2023-01-28T10:07:30.641Z,0.90
2023-01-28T10:08:30.630Z,0.88
2023-01-28T10:09:30.609Z,0.87
2023-01-28T10:10:30.621Z,0.90
2023-01-28T10:11:30.613Z,0.88
2023-01-28T10:12:30.582Z,0.83
2023-01-28T10:13:30.575Z,0.84
2023-01-28T10:14:30.586Z,0.88
2023-01-28T10:15:30.590Z,0.97
2023-01-28T10:16:30.533Z,1.02
2023-01-28T10:17:30.653Z,1.09
2023-01-28T10:18:30.524Z,1.08
2023-01-28T10:19:30.506Z,1.00
2023-01-28T10:20:30.523Z,0.98
2023-01-28T10:21:30.489Z,1.00
2023-01-28T10:22:30.463Z,1.00
2023-01-28T10:23:30.472Z,0.96
2023-01-28T10:24:30.591Z,0.97
2023-01-28T10:25:30.438Z,1.02
2023-01-28T10:26:30.440Z,0.98
2023-01-28T10:27:30.429Z,0.94
2023-01-28T10:28:30.404Z,0.87
2023-01-28T10:29:30.389Z,0.87
2023-01-28T10:30:30.374Z,0.87
2023-01-28T10:31:30.418Z,0.88
2023-01-28T10:32:30.371Z,0.93
2023-01-28T10:33:30.349Z,0.97
2023-01-28T10:34:30.358Z,0.97
2023-01-28T10:35:30.324Z,0.97
2023-01-28T10:36:30.328Z,0.96
2023-01-28T10:37:30.416Z,0.93
2023-01-28T10:38:30.304Z,0.91
2023-01-28T10:39:30.414Z,0.96
2023-01-28T10:40:30.288Z,0.97
2023-01-28T10:41:30.484Z,1.00
2023-01-28T10:42:30.279Z,1.02
2023-01-28T10:43:30.236Z,1.08
2023-01-28T10:44:30.235Z,1.12
2023-01-28T10:45:30.268Z,1.18
2023-01-28T10:46:30.212Z,1.24
2023-01-28T10:47:31.042Z,1.22
2023-01-28T10:48:30.188Z,1.09
2023-01-28T10:49:30.190Z,1.06
2023-01-28T10:50:30.182Z,1.06
2023-01-28T10:51:30.139Z,1.11
2023-01-28T10:52:30.139Z,1.15
2023-01-28T10:53:30.140Z,1.15
2023-01-28T10:54:30.132Z,1.22
2023-01-28T10:55:30.110Z,1.23
2023-01-28T10:56:30.093Z,1.22
2023-01-28T10:57:30.079Z,1.22
2023-01-28T10:58:30.073Z,1.22
2023-01-28T10:59:30.070Z,1.09
2023-01-28T11:00:30.058Z,1.11
2023-01-28T11:01:30.054Z,1.11
2023-01-28T11:02:30.085Z,1.15
2023-01-28T11:03:30.035Z,1.20
2023-01-28T11:04:30.031Z,1.26
2023-01-28T11:05:30.002Z,1.34
2023-01-28T11:06:29.984Z,1.42
2023-01-28T11:07:29.973Z,1.48
2023-01-28T11:08:29.989Z,1.54
2023-01-28T11:09:29.959Z,1.52
2023-01-28T11:10:29.944Z,1.50
2023-01-28T11:11:29.975Z,1.51
2023-01-28T11:12:29.936Z,1.52
2023-01-28T11:13:29.935Z,1.54
2023-01-28T11:14:29.911Z,1.52
2023-01-28T11:15:29.899Z,1.54
2023-01-28T11:16:29.889Z,1.48
2023-01-28T11:17:29.923Z,1.40
2023-01-28T11:18:29.846Z,1.40
2023-01-28T11:19:29.844Z,1.42
2023-01-28T11:20:29.824Z,1.48
2023-01-28T11:21:29.841Z,1.55
2023-01-28T11:22:29.801Z,1.55
2023-01-28T11:23:29.809Z,1.54
2023-01-28T11:24:29.941Z,1.55
2023-01-28T11:25:29.790Z,1.55
2023-01-28T11:26:29.754Z,1.40
2023-01-28T11:27:29.768Z,1.37
2023-01-28T11:28:29.736Z,1.36
2023-01-28T11:29:29.731Z,1.33
2023-01-28T11:30:29.743Z,1.27
2023-01-28T11:31:29.786Z,1.24
2023-01-28T11:32:29.698Z,1.24
2023-01-28T11:33:29.688Z,1.26
2023-01-28T11:34:29.705Z,1.30
2023-01-28T11:35:29.663Z,1.41
2023-01-28T11:36:29.654Z,1.42
2023-01-28T11:37:29.662Z,1.37
2023-01-28T11:38:29.632Z,1.37
2023-01-28T11:39:29.733Z,1.37
2023-01-28T11:40:29.595Z,1.34
2023-01-28T11:41:29.807Z,1.26
2023-01-28T11:42:29.627Z,1.23
2023-01-28T11:43:29.588Z,1.27
2023-01-28T11:44:29.559Z,1.26
2023-01-28T11:45:29.674Z,1.26
2023-01-28T11:46:29.527Z,1.29
2023-01-28T11:47:29.539Z,1.34
2023-01-28T11:48:29.517Z,1.27
2023-01-28T11:49:29.527Z,1.22
2023-01-28T11:50:29.506Z,1.23
2023-01-28T11:51:29.489Z,1.12
2023-01-28T11:52:38.767Z,1.15
2023-01-28T11:53:29.482Z,1.12
2023-01-28T11:54:29.465Z,1.16
2023-01-28T11:55:29.447Z,1.22
2023-01-28T11:56:29.425Z,1.16
2023-01-28T11:57:29.429Z,1.12
2023-01-28T11:58:29.413Z,1.11
2023-01-28T11:59:29.393Z,1.14
2023-01-28T12:00:29.379Z,1.20
2023-01-28T12:01:29.408Z,1.22
2023-01-28T12:02:29.403Z,1.23
2023-01-28T12:03:29.339Z,1.26
2023-01-28T12:04:29.380Z,1.27
2023-01-28T12:05:29.337Z,1.32
2023-01-28T12:06:29.319Z,1.42
2023-01-28T12:07:29.378Z,1.54
2023-01-28T12:08:29.295Z,1.66
2023-01-28T12:09:29.382Z,1.77
2023-01-28T12:10:29.278Z,1.77
2023-01-28T12:11:29.262Z,1.80
2023-01-28T12:12:29.265Z,1.76
2023-01-28T12:13:29.241Z,1.70
2023-01-28T12:14:29.274Z,1.66
2023-01-28T12:15:29.231Z,1.66
2023-01-28T12:16:29.186Z,1.68
2023-01-28T12:17:29.232Z,1.60
2023-01-28T12:18:29.230Z,1.55
2023-01-28T12:19:29.164Z,1.52
2023-01-28T12:20:29.157Z,1.47
2023-01-28T12:21:29.172Z,1.50
2023-01-28T12:22:29.145Z,1.45
2023-01-28T12:23:29.136Z,1.41
2023-01-28T12:24:29.196Z,1.45
2023-01-28T12:25:29.096Z,1.47
2023-01-28T12:26:29.093Z,1.44
2023-01-28T12:27:29.070Z,1.45
2023-01-28T12:28:29.069Z,1.50
2023-01-28T12:29:29.070Z,1.52
2023-01-28T12:30:29.062Z,1.60
2023-01-28T12:31:29.137Z,1.63
2023-01-28T12:32:29.040Z,1.62
2023-01-28T12:33:29.026Z,1.51
2023-01-28T12:34:29.005Z,1.45
2023-01-28T12:35:29.002Z,1.50
2023-01-28T12:36:28.961Z,1.51
2023-01-28T12:37:28.960Z,1.55
2023-01-28T12:38:28.978Z,1.62
2023-01-28T12:39:28.936Z,1.66
2023-01-28T12:40:28.924Z,1.68
2023-01-28T12:41:28.918Z,1.63
2023-01-28T12:42:28.923Z,1.68
2023-01-28T12:43:28.900Z,1.68
2023-01-28T12:44:28.874Z,1.76
2023-01-28T12:45:28.911Z,1.79
2023-01-28T12:46:28.860Z,1.77
2023-01-28T12:47:28.874Z,1.77
2023-01-28T12:48:28.826Z,1.62
2023-01-28T12:49:28.833Z,1.54
2023-01-28T12:50:28.818Z,1.63
2023-01-28T12:51:28.798Z,1.72
2023-01-28T12:52:28.809Z,1.70
2023-01-28T12:53:28.911Z,1.76
2023-01-28T12:54:28.768Z,1.80
2023-01-28T12:55:28.759Z,1.79
2023-01-28T12:56:28.745Z,1.84
2023-01-28T12:57:28.767Z,1.87
2023-01-28T12:58:28.734Z,1.88
2023-01-28T12:59:28.711Z,1.93
2023-01-28T13:00:28.697Z,1.98
2023-01-28T13:01:28.699Z,2.02
2023-01-28T13:02:28.669Z,2.05
2023-01-28T13:03:28.668Z,2.03
2023-01-28T13:04:28.647Z,2.06
2023-01-28T13:05:28.646Z,2.06
2023-01-28T13:06:28.655Z,2.10
2023-01-28T13:07:28.646Z,2.16
2023-01-28T13:08:28.651Z,2.17
2023-01-28T13:09:28.605Z,2.05
2023-01-28T13:10:28.580Z,1.99
2023-01-28T13:11:28.582Z,2.00
2023-01-28T13:12:28.578Z,2.02
2023-01-28T13:13:28.543Z,2.06
2023-01-28T13:14:28.553Z,2.10
2023-01-28T13:15:28.537Z,2.14
2023-01-28T13:16:37.409Z,2.09
2023-01-28T13:17:28.527Z,2.07
2023-01-28T13:18:28.501Z,2.05